GEC8202 CYUL-CYYZ
Flight info
| Callsign | GEC8202 |
|---|---|
| Flight time | N/A |
| Altitude | 36000 |
| Route | BOBKI DCT MELTI DCT TORNI RAGID6 |
| Aircraft | MD11/H-SDE1E2E3FGHIJ2J3J4J5M1RWXY/LB1D1 |
Departure
| Time | 2026-05-06 15:06 |
|---|---|
| Airport | Montreal / Pierre Elliott Trudeau International Airport (CYUL) |
Arrival
| Time | N/A |
|---|---|
| Airport | Toronto Pearson International Airport (CYYZ) |
| Time | Latitude | Longitude | Altitude | Speed | Heading |
|---|---|---|---|---|---|
| 2026-05-06 14:29 | 45.45320 | -73.75527 | 112 ft | 0 kts | 167° |
| 2026-05-06 14:47 | 45.45331 | -73.75530 | 102 ft | 4 kts | 167° |
| 2026-05-06 14:47 | 45.45354 | -73.75538 | 110 ft | 4 kts | 175° |
| 2026-05-06 14:47 | 45.45374 | -73.75537 | 109 ft | 4 kts | 221° |
| 2026-05-06 14:48 | 45.45385 | -73.75512 | 111 ft | 4 kts | 259° |
| 2026-05-06 14:48 | 45.45388 | -73.75487 | 112 ft | 0 kts | 258° |
| 2026-05-06 14:52 | 45.45388 | -73.75488 | 112 ft | 1 kts | 258° |
| 2026-05-06 14:52 | 45.45384 | -73.75516 | 112 ft | 5 kts | 258° |
| 2026-05-06 14:52 | 45.45379 | -73.75552 | 111 ft | 2 kts | 258° |
| 2026-05-06 14:52 | 45.45370 | -73.75613 | 110 ft | 10 kts | 258° |
| 2026-05-06 14:53 | 45.45363 | -73.75699 | 112 ft | 1 kts | 289° |
| 2026-05-06 14:53 | 45.45375 | -73.75715 | 110 ft | 3 kts | 314° |
| 2026-05-06 14:53 | 45.45395 | -73.75728 | 109 ft | 4 kts | 340° |
| 2026-05-06 14:53 | 45.45437 | -73.75742 | 111 ft | 9 kts | 348° |
| 2026-05-06 14:54 | 45.45515 | -73.75764 | 111 ft | 13 kts | 349° |
| 2026-05-06 14:54 | 45.45603 | -73.75788 | 111 ft | 12 kts | 349° |
| 2026-05-06 14:54 | 45.45687 | -73.75811 | 111 ft | 14 kts | 349° |
| 2026-05-06 14:54 | 45.45761 | -73.75857 | 110 ft | 10 kts | 314° |
| 2026-05-06 14:55 | 45.45806 | -73.75914 | 110 ft | 9 kts | 326° |
| 2026-05-06 14:55 | 45.45870 | -73.75942 | 111 ft | 11 kts | 349° |
| 2026-05-06 14:55 | 45.45946 | -73.75953 | 111 ft | 11 kts | 359° |
| 2026-05-06 14:55 | 45.46035 | -73.75954 | 110 ft | 13 kts | 0° |
| 2026-05-06 14:56 | 45.46110 | -73.75921 | 110 ft | 10 kts | 55° |
| 2026-05-06 14:56 | 45.46128 | -73.75840 | 109 ft | 8 kts | 86° |
| 2026-05-06 14:56 | 45.46130 | -73.75752 | 109 ft | 9 kts | 87° |
| 2026-05-06 14:56 | 45.46133 | -73.75646 | 109 ft | 13 kts | 87° |
| 2026-05-06 14:57 | 45.46138 | -73.75503 | 109 ft | 17 kts | 88° |
| 2026-05-06 14:57 | 45.46143 | -73.75319 | 109 ft | 20 kts | 88° |
| 2026-05-06 14:57 | 45.46149 | -73.75111 | 110 ft | 20 kts | 88° |
| 2026-05-06 14:57 | 45.46154 | -73.74930 | 112 ft | 17 kts | 88° |
| 2026-05-06 14:58 | 45.46160 | -73.74755 | 111 ft | 18 kts | 87° |
| 2026-05-06 14:58 | 45.46143 | -73.74562 | 111 ft | 20 kts | 112° |
| 2026-05-06 14:58 | 45.46130 | -73.74374 | 111 ft | 18 kts | 87° |
| 2026-05-06 14:58 | 45.46137 | -73.74201 | 111 ft | 16 kts | 87° |
| 2026-05-06 14:59 | 45.46150 | -73.74058 | 112 ft | 13 kts | 66° |
| 2026-05-06 14:59 | 45.46216 | -73.73959 | 110 ft | 15 kts | 43° |
| 2026-05-06 14:59 | 45.46298 | -73.73852 | 112 ft | 17 kts | 43° |
| 2026-05-06 14:59 | 45.46383 | -73.73739 | 111 ft | 15 kts | 43° |
| 2026-05-06 15:00 | 45.46454 | -73.73646 | 112 ft | 13 kts | 42° |
| 2026-05-06 15:00 | 45.46529 | -73.73547 | 114 ft | 16 kts | 42° |
| 2026-05-06 15:00 | 45.46621 | -73.73428 | 116 ft | 19 kts | 43° |
| 2026-05-06 15:00 | 45.46727 | -73.73289 | 116 ft | 22 kts | 43° |
| 2026-05-06 15:01 | 45.46839 | -73.73143 | 117 ft | 21 kts | 43° |
| 2026-05-06 15:01 | 45.46940 | -73.73011 | 118 ft | 20 kts | 42° |
| 2026-05-06 15:01 | 45.47045 | -73.72872 | 121 ft | 21 kts | 43° |
| 2026-05-06 15:01 | 45.47152 | -73.72733 | 123 ft | 20 kts | 42° |
| 2026-05-06 15:02 | 45.47251 | -73.72601 | 122 ft | 20 kts | 43° |
| 2026-05-06 15:02 | 45.47353 | -73.72465 | 126 ft | 20 kts | 43° |
| 2026-05-06 15:02 | 45.47455 | -73.72330 | 123 ft | 20 kts | 43° |
| 2026-05-06 15:02 | 45.47555 | -73.72202 | 125 ft | 20 kts | 41° |
| 2026-05-06 15:03 | 45.47659 | -73.72071 | 125 ft | 19 kts | 43° |
| 2026-05-06 15:03 | 45.47749 | -73.71951 | 125 ft | 16 kts | 43° |
| 2026-05-06 15:03 | 45.47809 | -73.71856 | 126 ft | 8 kts | 71° |
| 2026-05-06 15:03 | 45.47803 | -73.71800 | 128 ft | 5 kts | 110° |
| 2026-05-06 15:04 | 45.47785 | -73.71757 | 125 ft | 6 kts | 125° |
| 2026-05-06 15:04 | 45.47748 | -73.71696 | 127 ft | 10 kts | 133° |
| 2026-05-06 15:04 | 45.47703 | -73.71633 | 127 ft | 5 kts | 140° |
| 2026-05-06 15:04 | 45.47695 | -73.71630 | 124 ft | 0 kts | 169° |
| 2026-05-06 15:05 | 45.47689 | -73.71633 | 127 ft | 1 kts | 192° |
| 2026-05-06 15:05 | 45.47668 | -73.71650 | 128 ft | 7 kts | 210° |
| 2026-05-06 15:05 | 45.47607 | -73.71719 | 122 ft | 26 kts | 223° |
| 2026-05-06 15:05 | 45.47257 | -73.72188 | 122 ft | 104 kts | 223° |
| 2026-05-06 15:06 | 45.46642 | -73.72981 | 117 ft | 144 kts | 223° |
| 2026-05-06 15:06 | 45.45833 | -73.74087 | 419 ft | 172 kts | 224° |
| 2026-05-06 15:06 | 45.44979 | -73.75288 | 1360 ft | 167 kts | 225° |
| 2026-05-06 15:06 | 45.44157 | -73.76437 | 2414 ft | 169 kts | 228° |
| 2026-05-06 15:07 | 45.43446 | -73.77830 | 3202 ft | 175 kts | 253° |
| 2026-05-06 15:07 | 45.43339 | -73.79609 | 3851 ft | 194 kts | 278° |
| 2026-05-06 15:07 | 45.43527 | -73.81657 | 4232 ft | 225 kts | 278° |
| 2026-05-06 15:07 | 45.43689 | -73.83990 | 4514 ft | 248 kts | 275° |
| 2026-05-06 15:08 | 45.43780 | -73.86450 | 5522 ft | 248 kts | 272° |
| 2026-05-06 15:08 | 45.43815 | -73.88897 | 6699 ft | 247 kts | 269° |
| 2026-05-06 15:08 | 45.43808 | -73.91342 | 7755 ft | 248 kts | 266° |
| 2026-05-06 15:08 | 45.43771 | -73.93807 | 8752 ft | 250 kts | 264° |
| 2026-05-06 15:09 | 45.43711 | -73.96299 | 9726 ft | 253 kts | 263° |
| 2026-05-06 15:09 | 45.43632 | -73.98854 | 10295 ft | 270 kts | 262° |
| 2026-05-06 15:09 | 45.43564 | -74.00689 | 10390 ft | 290 kts | 262° |
| 2026-05-06 15:09 | 45.43443 | -74.03712 | 10525 ft | 320 kts | 263° |
| 2026-05-06 15:10 | 45.43315 | -74.06926 | 11234 ft | 327 kts | 263° |
| 2026-05-06 15:10 | 45.43184 | -74.10177 | 12140 ft | 330 kts | 263° |
| 2026-05-06 15:10 | 45.43047 | -74.13464 | 13019 ft | 334 kts | 263° |
| 2026-05-06 15:10 | 45.42905 | -74.16780 | 13879 ft | 336 kts | 263° |
| 2026-05-06 15:11 | 45.42758 | -74.20116 | 14634 ft | 339 kts | 262° |
| 2026-05-06 15:11 | 45.42608 | -74.23477 | 15376 ft | 342 kts | 262° |
| 2026-05-06 15:11 | 45.42454 | -74.26866 | 16075 ft | 345 kts | 262° |
| 2026-05-06 15:11 | 45.42297 | -74.30289 | 16802 ft | 348 kts | 262° |
| 2026-05-06 15:12 | 45.42137 | -74.33740 | 17529 ft | 350 kts | 262° |
| 2026-05-06 15:12 | 45.41977 | -74.37188 | 18204 ft | 353 kts | 262° |
| 2026-05-06 15:12 | 45.41809 | -74.40689 | 18754 ft | 355 kts | 261° |
| 2026-05-06 15:12 | 45.41458 | -74.44165 | 19287 ft | 355 kts | 256° |
| 2026-05-06 15:13 | 45.40936 | -74.47618 | 19815 ft | 357 kts | 254° |
| 2026-05-06 15:13 | 45.40354 | -74.51081 | 20338 ft | 359 kts | 253° |
| 2026-05-06 15:13 | 45.39767 | -74.54497 | 20877 ft | 362 kts | 253° |
| 2026-05-06 15:13 | 45.39166 | -74.58000 | 21425 ft | 364 kts | 253° |
| 2026-05-06 15:14 | 45.38567 | -74.61526 | 21990 ft | 367 kts | 253° |
| 2026-05-06 15:14 | 45.37966 | -74.65079 | 22551 ft | 370 kts | 253° |
| 2026-05-06 15:14 | 45.37364 | -74.68658 | 23128 ft | 373 kts | 253° |
| 2026-05-06 15:14 | 45.36765 | -74.72218 | 23668 ft | 376 kts | 253° |
| 2026-05-06 15:15 | 45.36155 | -74.75845 | 24279 ft | 377 kts | 253° |
| 2026-05-06 15:15 | 45.35543 | -74.79483 | 24871 ft | 378 kts | 253° |
| 2026-05-06 15:15 | 45.34930 | -74.83120 | 25441 ft | 379 kts | 253° |
| 2026-05-06 15:15 | 45.34310 | -74.86778 | 26026 ft | 381 kts | 253° |
| 2026-05-06 15:16 | 45.33686 | -74.90413 | 26592 ft | 383 kts | 252° |
| 2026-05-06 15:16 | 45.33050 | -74.94103 | 27147 ft | 385 kts | 252° |
| 2026-05-06 15:16 | 45.32411 | -74.97808 | 27690 ft | 387 kts | 252° |
| 2026-05-06 15:16 | 45.31770 | -75.01531 | 28244 ft | 389 kts | 252° |
| 2026-05-06 15:17 | 45.31125 | -75.05278 | 28760 ft | 391 kts | 252° |
| 2026-05-06 15:17 | 45.30476 | -75.09044 | 29300 ft | 393 kts | 252° |
| 2026-05-06 15:17 | 45.29823 | -75.12830 | 29802 ft | 396 kts | 252° |
| 2026-05-06 15:17 | 45.29167 | -75.16625 | 30226 ft | 398 kts | 252° |
| 2026-05-06 15:18 | 45.28502 | -75.20466 | 30569 ft | 402 kts | 251° |
| 2026-05-06 15:18 | 45.27840 | -75.24280 | 30926 ft | 403 kts | 251° |
| 2026-05-06 15:18 | 45.27170 | -75.28140 | 31400 ft | 401 kts | 251° |
| 2026-05-06 15:18 | 45.26504 | -75.31973 | 31889 ft | 399 kts | 251° |
| 2026-05-06 15:19 | 45.25840 | -75.35788 | 32385 ft | 397 kts | 250° |
| 2026-05-06 15:19 | 45.25175 | -75.39594 | 32852 ft | 395 kts | 250° |
| 2026-05-06 15:19 | 45.24514 | -75.43371 | 33291 ft | 393 kts | 250° |
| 2026-05-06 15:19 | 45.23855 | -75.47122 | 33750 ft | 391 kts | 249° |
| 2026-05-06 15:20 | 45.23198 | -75.50852 | 34037 ft | 391 kts | 249° |
| 2026-05-06 15:20 | 45.22535 | -75.54601 | 34302 ft | 392 kts | 249° |
| 2026-05-06 15:20 | 45.21869 | -75.58361 | 34564 ft | 393 kts | 250° |
| 2026-05-06 15:20 | 45.21202 | -75.62120 | 34875 ft | 394 kts | 250° |
| 2026-05-06 15:21 | 45.20531 | -75.65894 | 35103 ft | 395 kts | 250° |
| 2026-05-06 15:21 | 45.19858 | -75.69677 | 35337 ft | 396 kts | 251° |
| 2026-05-06 15:21 | 45.19182 | -75.73469 | 35580 ft | 397 kts | 251° |
| 2026-05-06 15:21 | 45.18504 | -75.77263 | 35803 ft | 398 kts | 251° |
| 2026-05-06 15:22 | 45.17830 | -75.81028 | 35900 ft | 399 kts | 251° |
| 2026-05-06 15:22 | 45.16455 | -75.88682 | 35934 ft | 401 kts | 251° |
| 2026-05-06 15:23 | 45.15077 | -75.96332 | 35889 ft | 400 kts | 251° |
| 2026-05-06 15:23 | 45.13678 | -76.03963 | 35890 ft | 400 kts | 251° |
| 2026-05-06 15:24 | 45.12253 | -76.11601 | 35894 ft | 400 kts | 252° |
| 2026-05-06 15:24 | 45.10857 | -76.19160 | 35886 ft | 399 kts | 251° |
| 2026-05-06 15:25 | 45.08804 | -76.26414 | 35894 ft | 395 kts | 241° |
| 2026-05-06 15:25 | 45.06117 | -76.33202 | 35894 ft | 395 kts | 239° |
| 2026-05-06 15:26 | 45.03404 | -76.39920 | 35896 ft | 395 kts | 239° |
| 2026-05-06 15:26 | 45.00707 | -76.46696 | 35893 ft | 395 kts | 239° |
| 2026-05-06 15:27 | 44.98021 | -76.53484 | 35915 ft | 397 kts | 240° |
| 2026-05-06 15:27 | 44.95319 | -76.60314 | 35890 ft | 397 kts | 240° |
| 2026-05-06 15:28 | 44.92637 | -76.67078 | 35898 ft | 397 kts | 240° |
| 2026-05-06 15:28 | 44.89928 | -76.73892 | 35898 ft | 397 kts | 240° |
| 2026-05-06 15:29 | 44.87218 | -76.80691 | 35904 ft | 397 kts | 240° |
| 2026-05-06 15:29 | 44.84504 | -76.87485 | 35902 ft | 397 kts | 240° |
| 2026-05-06 15:30 | 44.81781 | -76.94284 | 35877 ft | 397 kts | 240° |
| 2026-05-06 15:30 | 44.79062 | -77.00989 | 35911 ft | 398 kts | 240° |
| 2026-05-06 15:31 | 44.76306 | -77.07779 | 35896 ft | 400 kts | 240° |
| 2026-05-06 15:31 | 44.73546 | -77.14593 | 35902 ft | 400 kts | 240° |
| 2026-05-06 15:32 | 44.69420 | -77.24773 | 35889 ft | 401 kts | 240° |
| 2026-05-06 15:32 | 44.66655 | -77.31572 | 35874 ft | 400 kts | 240° |
| 2026-05-06 15:33 | 44.63889 | -77.38357 | 35881 ft | 400 kts | 240° |
| 2026-05-06 15:33 | 44.61115 | -77.45147 | 35887 ft | 400 kts | 240° |
| 2026-05-06 15:34 | 44.58335 | -77.51933 | 35889 ft | 402 kts | 240° |
| 2026-05-06 15:34 | 44.55558 | -77.58698 | 35877 ft | 402 kts | 240° |
| 2026-05-06 15:35 | 44.52760 | -77.65497 | 35890 ft | 402 kts | 240° |
| 2026-05-06 15:35 | 44.49947 | -77.72260 | 35887 ft | 401 kts | 240° |
| 2026-05-06 15:36 | 44.47135 | -77.79004 | 35889 ft | 401 kts | 240° |
| 2026-05-06 15:36 | 44.44347 | -77.85707 | 35593 ft | 400 kts | 240° |
| 2026-05-06 15:37 | 44.42952 | -77.89060 | 35140 ft | 397 kts | 240° |
| 2026-05-06 15:37 | 44.41563 | -77.92397 | 34616 ft | 395 kts | 240° |
| 2026-05-06 15:37 | 44.40182 | -77.95711 | 34151 ft | 395 kts | 240° |
| 2026-05-06 15:37 | 44.38795 | -77.99036 | 33624 ft | 396 kts | 240° |
| 2026-05-06 15:38 | 44.37406 | -78.02361 | 33102 ft | 396 kts | 240° |
| 2026-05-06 15:38 | 44.36010 | -78.05700 | 32596 ft | 397 kts | 240° |
| 2026-05-06 15:38 | 44.34610 | -78.09026 | 32080 ft | 398 kts | 240° |
| 2026-05-06 15:38 | 44.33203 | -78.12362 | 31514 ft | 398 kts | 240° |
| 2026-05-06 15:39 | 44.31795 | -78.15699 | 30949 ft | 399 kts | 240° |
| 2026-05-06 15:39 | 44.30384 | -78.19047 | 30356 ft | 401 kts | 240° |
| 2026-05-06 15:39 | 44.28976 | -78.22384 | 29633 ft | 402 kts | 240° |
| 2026-05-06 15:39 | 44.27551 | -78.25763 | 28893 ft | 405 kts | 240° |
| 2026-05-06 15:40 | 44.26114 | -78.29165 | 28195 ft | 407 kts | 240° |
| 2026-05-06 15:40 | 44.24678 | -78.32562 | 27505 ft | 405 kts | 240° |
| 2026-05-06 15:40 | 44.23273 | -78.35881 | 26845 ft | 401 kts | 241° |
| 2026-05-06 15:40 | 44.21855 | -78.39226 | 26166 ft | 398 kts | 241° |
| 2026-05-06 15:41 | 44.20451 | -78.42537 | 25512 ft | 395 kts | 241° |
| 2026-05-06 15:41 | 44.19059 | -78.45814 | 24856 ft | 391 kts | 241° |
| 2026-05-06 15:41 | 44.17673 | -78.49074 | 24206 ft | 388 kts | 242° |
| 2026-05-06 15:41 | 44.16317 | -78.52260 | 23571 ft | 386 kts | 242° |
| 2026-05-06 15:42 | 44.14944 | -78.55483 | 22836 ft | 383 kts | 242° |
| 2026-05-06 15:42 | 44.13591 | -78.58657 | 22158 ft | 379 kts | 241° |
| 2026-05-06 15:42 | 44.12263 | -78.61766 | 21531 ft | 375 kts | 241° |
| 2026-05-06 15:42 | 44.10931 | -78.64885 | 20901 ft | 372 kts | 241° |
| 2026-05-06 15:43 | 44.09607 | -78.67979 | 20287 ft | 369 kts | 240° |
| 2026-05-06 15:43 | 44.08298 | -78.71034 | 19673 ft | 365 kts | 240° |
| 2026-05-06 15:43 | 44.07004 | -78.74054 | 19067 ft | 362 kts | 240° |
| 2026-05-06 15:43 | 44.05717 | -78.77052 | 18456 ft | 359 kts | 240° |
| 2026-05-06 15:44 | 44.04441 | -78.79998 | 17820 ft | 357 kts | 239° |
| 2026-05-06 15:44 | 44.03127 | -78.82914 | 17174 ft | 354 kts | 239° |
| 2026-05-06 15:44 | 44.01811 | -78.85784 | 16546 ft | 350 kts | 238° |
| 2026-05-06 15:44 | 44.00518 | -78.88593 | 15999 ft | 347 kts | 238° |
| 2026-05-06 15:45 | 43.99225 | -78.91405 | 15612 ft | 344 kts | 238° |
| 2026-05-06 15:45 | 43.97949 | -78.94185 | 15431 ft | 332 kts | 238° |
| 2026-05-06 15:45 | 43.96741 | -78.96814 | 15320 ft | 313 kts | 239° |
| 2026-05-06 15:45 | 43.95603 | -78.99292 | 15168 ft | 296 kts | 239° |
| 2026-05-06 15:46 | 43.94522 | -79.01647 | 15044 ft | 281 kts | 239° |
| 2026-05-06 15:46 | 43.93499 | -79.03874 | 14912 ft | 269 kts | 239° |
| 2026-05-06 15:46 | 43.92495 | -79.06060 | 14877 ft | 267 kts | 239° |
| 2026-05-06 15:46 | 43.91498 | -79.08233 | 14812 ft | 266 kts | 239° |
| 2026-05-06 15:47 | 43.90518 | -79.10367 | 14756 ft | 266 kts | 239° |
| 2026-05-06 15:47 | 43.89521 | -79.12539 | 14673 ft | 266 kts | 239° |
| 2026-05-06 15:47 | 43.88525 | -79.14707 | 14621 ft | 266 kts | 239° |
| 2026-05-06 15:47 | 43.87540 | -79.16851 | 14558 ft | 266 kts | 239° |
| 2026-05-06 15:48 | 43.86545 | -79.19016 | 14500 ft | 265 kts | 239° |
| 2026-05-06 15:48 | 43.85552 | -79.21175 | 14440 ft | 265 kts | 239° |
| 2026-05-06 15:48 | 43.84569 | -79.23310 | 14377 ft | 265 kts | 239° |
| 2026-05-06 15:48 | 43.83578 | -79.25461 | 14315 ft | 264 kts | 239° |
| 2026-05-06 15:49 | 43.82585 | -79.27615 | 14256 ft | 264 kts | 239° |
| 2026-05-06 15:49 | 43.81594 | -79.29763 | 14189 ft | 264 kts | 239° |
| 2026-05-06 15:49 | 43.80597 | -79.31923 | 13847 ft | 265 kts | 238° |
| 2026-05-06 15:49 | 43.79619 | -79.34040 | 13365 ft | 263 kts | 238° |
| 2026-05-06 15:50 | 43.78778 | -79.36268 | 12813 ft | 260 kts | 251° |
| 2026-05-06 15:50 | 43.78370 | -79.38706 | 12307 ft | 261 kts | 258° |
| 2026-05-06 15:50 | 43.78089 | -79.41186 | 11772 ft | 260 kts | 259° |
| 2026-05-06 15:50 | 43.77834 | -79.43662 | 11231 ft | 260 kts | 260° |
| 2026-05-06 15:51 | 43.77584 | -79.46139 | 10694 ft | 260 kts | 261° |
| 2026-05-06 15:51 | 43.77334 | -79.48611 | 10187 ft | 259 kts | 261° |
| 2026-05-06 15:51 | 43.77085 | -79.51074 | 9665 ft | 259 kts | 261° |
| 2026-05-06 15:51 | 43.76836 | -79.53546 | 9147 ft | 257 kts | 261° |
| 2026-05-06 15:52 | 43.76589 | -79.55981 | 8793 ft | 253 kts | 261° |
| 2026-05-06 15:52 | 43.76345 | -79.58391 | 8550 ft | 251 kts | 261° |
| 2026-05-06 15:52 | 43.76106 | -79.60744 | 8282 ft | 241 kts | 261° |
| 2026-05-06 15:52 | 43.75882 | -79.62947 | 8063 ft | 222 kts | 261° |
| 2026-05-06 15:53 | 43.75667 | -79.65024 | 7919 ft | 218 kts | 261° |
| 2026-05-06 15:53 | 43.75457 | -79.67051 | 7609 ft | 214 kts | 261° |
| 2026-05-06 15:53 | 43.75242 | -79.69118 | 7290 ft | 215 kts | 261° |
| 2026-05-06 15:53 | 43.74982 | -79.71115 | 6982 ft | 214 kts | 251° |
| 2026-05-06 15:54 | 43.74234 | -79.72880 | 6690 ft | 215 kts | 231° |
| 2026-05-06 15:54 | 43.73241 | -79.74439 | 6465 ft | 216 kts | 229° |
| 2026-05-06 15:54 | 43.72219 | -79.75972 | 6210 ft | 217 kts | 228° |
| 2026-05-06 15:54 | 43.71211 | -79.77470 | 5937 ft | 217 kts | 228° |
| 2026-05-06 15:55 | 43.70163 | -79.79020 | 5682 ft | 217 kts | 228° |
| 2026-05-06 15:55 | 43.69143 | -79.80522 | 5424 ft | 216 kts | 227° |
| 2026-05-06 15:55 | 43.68113 | -79.82035 | 5170 ft | 216 kts | 227° |
| 2026-05-06 15:55 | 43.67090 | -79.83533 | 4913 ft | 215 kts | 227° |
| 2026-05-06 15:56 | 43.66067 | -79.85030 | 4660 ft | 214 kts | 227° |
| 2026-05-06 15:56 | 43.65036 | -79.86536 | 4356 ft | 217 kts | 227° |
| 2026-05-06 15:56 | 43.63995 | -79.88036 | 4049 ft | 214 kts | 224° |
| 2026-05-06 15:56 | 43.63210 | -79.88884 | 4015 ft | 217 kts | 210° |
| 2026-05-06 15:57 | 43.61776 | -79.89419 | 3939 ft | 213 kts | 178° |
| 2026-05-06 15:57 | 43.60424 | -79.88751 | 3869 ft | 209 kts | 145° |
| 2026-05-06 15:57 | 43.59298 | -79.87464 | 3835 ft | 211 kts | 139° |
| 2026-05-06 15:57 | 43.58213 | -79.86096 | 3635 ft | 212 kts | 137° |
| 2026-05-06 15:58 | 43.57304 | -79.84585 | 3306 ft | 199 kts | 117° |
| 2026-05-06 15:58 | 43.57106 | -79.82772 | 2967 ft | 190 kts | 77° |
| 2026-05-06 15:58 | 43.57709 | -79.81199 | 2726 ft | 187 kts | 50° |
| 2026-05-06 15:58 | 43.58530 | -79.79835 | 2444 ft | 182 kts | 48° |
| 2026-05-06 15:59 | 43.59353 | -79.78528 | 2134 ft | 179 kts | 48° |
| 2026-05-06 15:59 | 43.60178 | -79.77240 | 2030 ft | 180 kts | 47° |
| 2026-05-06 15:59 | 43.61008 | -79.75967 | 2024 ft | 181 kts | 47° |
| 2026-05-06 15:59 | 43.61858 | -79.74678 | 2029 ft | 181 kts | 46° |
| 2026-05-06 16:00 | 43.62710 | -79.73399 | 2015 ft | 181 kts | 46° |
| 2026-05-06 16:00 | 43.63573 | -79.72115 | 1778 ft | 183 kts | 46° |
| 2026-05-06 16:00 | 43.64433 | -79.70841 | 1458 ft | 179 kts | 46° |